sensor_id;sensor_type;location;lat;lon;timestamp;P1;durP1;ratioP1;P2;durP2;ratioP2
28828;SDS011;15966;51.540;11.870;2023-03-14T00:01:56;2.45;;;0.77;;
28828;SDS011;15966;51.540;11.870;2023-03-14T00:04:23;1.33;;;1.15;;
28828;SDS011;15966;51.540;11.870;2023-03-14T00:06:49;2.85;;;1.25;;
28828;SDS011;15966;51.540;11.870;2023-03-14T00:09:18;1.00;;;0.90;;
28828;SDS011;15966;51.540;11.870;2023-03-14T00:11:44;1.23;;;0.90;;
28828;SDS011;15966;51.540;11.870;2023-03-14T00:14:11;0.50;;;0.50;;
28828;SDS011;15966;51.540;11.870;2023-03-14T00:16:37;1.15;;;0.90;;
28828;SDS011;15966;51.540;11.870;2023-03-14T00:19:03;3.13;;;0.80;;
28828;SDS011;15966;51.540;11.870;2023-03-14T00:21:29;0.43;;;0.43;;
28828;SDS011;15966;51.540;11.870;2023-03-14T00:23:55;1.33;;;0.75;;
28828;SDS011;15966;51.540;11.870;2023-03-14T00:26:21;1.17;;;0.70;;
28828;SDS011;15966;51.540;11.870;2023-03-14T00:28:50;2.28;;;0.95;;
28828;SDS011;15966;51.540;11.870;2023-03-14T00:31:17;0.57;;;0.57;;
28828;SDS011;15966;51.540;11.870;2023-03-14T00:33:44;0.60;;;0.57;;
28828;SDS011;15966;51.540;11.870;2023-03-14T00:36:11;1.38;;;0.70;;
28828;SDS011;15966;51.540;11.870;2023-03-14T00:38:40;2.10;;;0.85;;
28828;SDS011;15966;51.540;11.870;2023-03-14T00:41:07;1.03;;;0.90;;
28828;SDS011;15966;51.540;11.870;2023-03-14T00:43:35;0.60;;;0.52;;
28828;SDS011;15966;51.540;11.870;2023-03-14T00:46:01;1.75;;;1.02;;
28828;SDS011;15966;51.540;11.870;2023-03-14T00:48:27;1.27;;;0.80;;
28828;SDS011;15966;51.540;11.870;2023-03-14T00:50:54;0.73;;;0.73;;
28828;SDS011;15966;51.540;11.870;2023-03-14T00:53:20;0.93;;;0.73;;
28828;SDS011;15966;51.540;11.870;2023-03-14T00:55:46;2.90;;;0.80;;
28828;SDS011;15966;51.540;11.870;2023-03-14T00:58:13;1.50;;;1.10;;
28828;SDS011;15966;51.540;11.870;2023-03-14T01:00:40;1.17;;;1.02;;
28828;SDS011;15966;51.540;11.870;2023-03-14T01:03:07;0.43;;;0.43;;
28828;SDS011;15966;51.540;11.870;2023-03-14T01:05:33;1.30;;;0.80;;
28828;SDS011;15966;51.540;11.870;2023-03-14T01:08:00;0.60;;;0.60;;
28828;SDS011;15966;51.540;11.870;2023-03-14T01:10:26;1.23;;;1.05;;
28828;SDS011;15966;51.540;11.870;2023-03-14T01:12:53;1.20;;;0.60;;
28828;SDS011;15966;51.540;11.870;2023-03-14T01:15:19;1.85;;;0.70;;
28828;SDS011;15966;51.540;11.870;2023-03-14T01:17:45;1.10;;;0.90;;
28828;SDS011;15966;51.540;11.870;2023-03-14T01:20:12;0.40;;;0.40;;
28828;SDS011;15966;51.540;11.870;2023-03-14T01:22:40;2.35;;;0.93;;
28828;SDS011;15966;51.540;11.870;2023-03-14T01:25:07;0.80;;;0.77;;
28828;SDS011;15966;51.540;11.870;2023-03-14T01:27:34;1.40;;;1.15;;
28828;SDS011;15966;51.540;11.870;2023-03-14T01:30:00;0.98;;;0.88;;
28828;SDS011;15966;51.540;11.870;2023-03-14T01:32:27;2.83;;;0.73;;
28828;SDS011;15966;51.540;11.870;2023-03-14T01:34:53;0.73;;;0.70;;
28828;SDS011;15966;51.540;11.870;2023-03-14T01:37:19;3.45;;;0.98;;
28828;SDS011;15966;51.540;11.870;2023-03-14T01:39:48;0.85;;;0.85;;
28828;SDS011;15966;51.540;11.870;2023-03-14T01:42:15;1.00;;;0.63;;
28828;SDS011;15966;51.540;11.870;2023-03-14T01:47:23;0.80;;;0.80;;
28828;SDS011;15966;51.540;11.870;2023-03-14T01:49:54;0.55;;;0.50;;
28828;SDS011;15966;51.540;11.870;2023-03-14T01:52:40;4.30;;;1.20;;
28828;SDS011;15966;51.540;11.870;2023-03-14T01:55:15;1.08;;;0.93;;
28828;SDS011;15966;51.540;11.870;2023-03-14T01:57:45;0.70;;;0.70;;
28828;SDS011;15966;51.540;11.870;2023-03-14T02:00:23;0.68;;;0.60;;
28828;SDS011;15966;51.540;11.870;2023-03-14T02:02:54;1.33;;;1.00;;
28828;SDS011;15966;51.540;11.870;2023-03-14T02:05:26;2.80;;;1.52;;
28828;SDS011;15966;51.540;11.870;2023-03-14T02:07:58;1.60;;;1.17;;
28828;SDS011;15966;51.540;11.870;2023-03-14T02:10:26;1.70;;;1.50;;
28828;SDS011;15966;51.540;11.870;2023-03-14T02:12:59;1.52;;;1.00;;
28828;SDS011;15966;51.540;11.870;2023-03-14T02:15:27;2.75;;;1.38;;
28828;SDS011;15966;51.540;11.870;2023-03-14T02:17:53;2.38;;;1.40;;
28828;SDS011;15966;51.540;11.870;2023-03-14T02:20:28;1.10;;;0.90;;
28828;SDS011;15966;51.540;11.870;2023-03-14T02:22:56;5.60;;;1.08;;
28828;SDS011;15966;51.540;11.870;2023-03-14T02:25:25;1.90;;;1.00;;
28828;SDS011;15966;51.540;11.870;2023-03-14T02:27:53;1.80;;;1.00;;
28828;SDS011;15966;51.540;11.870;2023-03-14T02:30:20;1.08;;;0.90;;
28828;SDS011;15966;51.540;11.870;2023-03-14T02:32:50;1.83;;;1.02;;
28828;SDS011;15966;51.540;11.870;2023-03-14T02:35:24;0.85;;;0.70;;
28828;SDS011;15966;51.540;11.870;2023-03-14T02:40:52;1.00;;;0.77;;
28828;SDS011;15966;51.540;11.870;2023-03-14T02:43:18;3.70;;;0.90;;
28828;SDS011;15966;51.540;11.870;2023-03-14T02:45:45;0.65;;;0.60;;
28828;SDS011;15966;51.540;11.870;2023-03-14T02:48:20;0.57;;;0.57;;
28828;SDS011;15966;51.540;11.870;2023-03-14T02:50:51;0.80;;;0.80;;
28828;SDS011;15966;51.540;11.870;2023-03-14T02:53:24;1.33;;;1.00;;
28828;SDS011;15966;51.540;11.870;2023-03-14T02:55:58;1.95;;;0.85;;
28828;SDS011;15966;51.540;11.870;2023-03-14T02:58:25;3.45;;;0.77;;
28828;SDS011;15966;51.540;11.870;2023-03-14T03:00:52;1.05;;;0.77;;
28828;SDS011;15966;51.540;11.870;2023-03-14T03:03:18;0.65;;;0.65;;
28828;SDS011;15966;51.540;11.870;2023-03-14T03:05:51;2.67;;;1.15;;
28828;SDS011;15966;51.540;11.870;2023-03-14T03:08:18;1.13;;;0.90;;
28828;SDS011;15966;51.540;11.870;2023-03-14T03:10:45;1.85;;;0.70;;
28828;SDS011;15966;51.540;11.870;2023-03-14T03:13:11;1.60;;;1.00;;
28828;SDS011;15966;51.540;11.870;2023-03-14T03:15:37;0.85;;;0.80;;
28828;SDS011;15966;51.540;11.870;2023-03-14T03:18:04;1.98;;;1.42;;
28828;SDS011;15966;51.540;11.870;2023-03-14T03:20:30;2.33;;;1.00;;
28828;SDS011;15966;51.540;11.870;2023-03-14T03:22:56;0.85;;;0.85;;
28828;SDS011;15966;51.540;11.870;2023-03-14T03:25:24;2.25;;;0.98;;
28828;SDS011;15966;51.540;11.870;2023-03-14T03:27:50;3.25;;;1.27;;
28828;SDS011;15966;51.540;11.870;2023-03-14T03:30:16;1.27;;;1.02;;
28828;SDS011;15966;51.540;11.870;2023-03-14T03:32:42;2.40;;;1.00;;
28828;SDS011;15966;51.540;11.870;2023-03-14T03:35:08;1.23;;;0.73;;
28828;SDS011;15966;51.540;11.870;2023-03-14T03:37:35;0.88;;;0.88;;
28828;SDS011;15966;51.540;11.870;2023-03-14T03:40:01;1.13;;;1.00;;
28828;SDS011;15966;51.540;11.870;2023-03-14T03:42:31;2.97;;;1.40;;
28828;SDS011;15966;51.540;11.870;2023-03-14T03:44:57;1.60;;;0.95;;
28828;SDS011;15966;51.540;11.870;2023-03-14T03:47:24;0.65;;;0.65;;
28828;SDS011;15966;51.540;11.870;2023-03-14T03:49:50;11.27;;;1.48;;
28828;SDS011;15966;51.540;11.870;2023-03-14T03:52:16;2.80;;;1.55;;
28828;SDS011;15966;51.540;11.870;2023-03-14T03:54:42;1.48;;;1.05;;
28828;SDS011;15966;51.540;11.870;2023-03-14T03:57:08;5.70;;;1.38;;
28828;SDS011;15966;51.540;11.870;2023-03-14T03:59:34;1.80;;;1.42;;
28828;SDS011;15966;51.540;11.870;2023-03-14T04:02:00;2.92;;;1.40;;
28828;SDS011;15966;51.540;11.870;2023-03-14T04:04:26;1.05;;;0.90;;
28828;SDS011;15966;51.540;11.870;2023-03-14T04:06:52;1.52;;;1.10;;
28828;SDS011;15966;51.540;11.870;2023-03-14T04:09:18;3.15;;;0.90;;
28828;SDS011;15966;51.540;11.870;2023-03-14T04:11:45;1.00;;;1.00;;
28828;SDS011;15966;51.540;11.870;2023-03-14T04:14:11;5.30;;;1.35;;
28828;SDS011;15966;51.540;11.870;2023-03-14T04:16:37;1.30;;;1.20;;
28828;SDS011;15966;51.540;11.870;2023-03-14T04:19:03;2.47;;;1.13;;
28828;SDS011;15966;51.540;11.870;2023-03-14T04:21:29;4.35;;;2.17;;
28828;SDS011;15966;51.540;11.870;2023-03-14T04:23:55;7.75;;;5.35;;
28828;SDS011;15966;51.540;11.870;2023-03-14T04:26:21;8.82;;;2.97;;
28828;SDS011;15966;51.540;11.870;2023-03-14T04:28:47;3.67;;;2.22;;
28828;SDS011;15966;51.540;11.870;2023-03-14T04:31:14;2.00;;;1.35;;
28828;SDS011;15966;51.540;11.870;2023-03-14T04:33:45;1.23;;;0.90;;
28828;SDS011;15966;51.540;11.870;2023-03-14T04:36:11;2.60;;;1.08;;
28828;SDS011;15966;51.540;11.870;2023-03-14T04:38:37;3.05;;;0.90;;
28828;SDS011;15966;51.540;11.870;2023-03-14T04:41:04;4.30;;;1.27;;
28828;SDS011;15966;51.540;11.870;2023-03-14T04:43:30;4.38;;;1.30;;
28828;SDS011;15966;51.540;11.870;2023-03-14T04:45:57;2.85;;;1.25;;
28828;SDS011;15966;51.540;11.870;2023-03-14T04:48:24;1.35;;;0.98;;
28828;SDS011;15966;51.540;11.870;2023-03-14T04:50:50;2.47;;;1.15;;
28828;SDS011;15966;51.540;11.870;2023-03-14T04:53:17;1.83;;;1.30;;
28828;SDS011;15966;51.540;11.870;2023-03-14T04:55:50;5.70;;;1.67;;
28828;SDS011;15966;51.540;11.870;2023-03-14T04:58:18;2.10;;;1.30;;
28828;SDS011;15966;51.540;11.870;2023-03-14T05:00:44;3.35;;;1.67;;
28828;SDS011;15966;51.540;11.870;2023-03-14T05:03:10;4.03;;;1.40;;
28828;SDS011;15966;51.540;11.870;2023-03-14T05:05:36;3.45;;;1.58;;
28828;SDS011;15966;51.540;11.870;2023-03-14T05:08:03;4.70;;;1.50;;
28828;SDS011;15966;51.540;11.870;2023-03-14T05:10:29;2.22;;;1.58;;
28828;SDS011;15966;51.540;11.870;2023-03-14T05:12:55;4.68;;;1.88;;
28828;SDS011;15966;51.540;11.870;2023-03-14T05:15:21;3.25;;;1.52;;
28828;SDS011;15966;51.540;11.870;2023-03-14T05:17:47;8.55;;;2.63;;
28828;SDS011;15966;51.540;11.870;2023-03-14T05:20:14;4.68;;;2.45;;
28828;SDS011;15966;51.540;11.870;2023-03-14T05:22:40;3.00;;;2.03;;
28828;SDS011;15966;51.540;11.870;2023-03-14T05:25:06;4.47;;;2.28;;
28828;SDS011;15966;51.540;11.870;2023-03-14T05:27:33;6.20;;;2.53;;
28828;SDS011;15966;51.540;11.870;2023-03-14T05:29:59;9.98;;;2.40;;
28828;SDS011;15966;51.540;11.870;2023-03-14T05:32:26;5.07;;;1.83;;
28828;SDS011;15966;51.540;11.870;2023-03-14T05:34:52;3.83;;;1.45;;
28828;SDS011;15966;51.540;11.870;2023-03-14T05:37:18;5.07;;;2.05;;
28828;SDS011;15966;51.540;11.870;2023-03-14T05:39:44;2.08;;;1.50;;
28828;SDS011;15966;51.540;11.870;2023-03-14T05:42:10;6.18;;;1.95;;
28828;SDS011;15966;51.540;11.870;2023-03-14T05:44:36;5.68;;;2.00;;
28828;SDS011;15966;51.540;11.870;2023-03-14T05:47:02;4.00;;;1.42;;
28828;SDS011;15966;51.540;11.870;2023-03-14T05:49:28;3.65;;;1.88;;
28828;SDS011;15966;51.540;11.870;2023-03-14T05:51:55;6.75;;;1.40;;
28828;SDS011;15966;51.540;11.870;2023-03-14T05:54:21;3.17;;;1.60;;
28828;SDS011;15966;51.540;11.870;2023-03-14T05:56:47;5.30;;;1.75;;
28828;SDS011;15966;51.540;11.870;2023-03-14T05:59:13;5.28;;;1.33;;
28828;SDS011;15966;51.540;11.870;2023-03-14T06:01:39;5.15;;;2.15;;
28828;SDS011;15966;51.540;11.870;2023-03-14T06:04:06;5.57;;;1.77;;
28828;SDS011;15966;51.540;11.870;2023-03-14T06:06:32;5.28;;;1.60;;
28828;SDS011;15966;51.540;11.870;2023-03-14T06:08:58;6.95;;;1.77;;
28828;SDS011;15966;51.540;11.870;2023-03-14T06:11:24;11.93;;;2.70;;
28828;SDS011;15966;51.540;11.870;2023-03-14T06:13:50;5.80;;;1.40;;
28828;SDS011;15966;51.540;11.870;2023-03-14T06:16:16;6.57;;;2.20;;
28828;SDS011;15966;51.540;11.870;2023-03-14T06:18:42;4.22;;;1.33;;
28828;SDS011;15966;51.540;11.870;2023-03-14T06:21:11;5.18;;;2.15;;
28828;SDS011;15966;51.540;11.870;2023-03-14T06:23:37;4.20;;;1.40;;
28828;SDS011;15966;51.540;11.870;2023-03-14T06:26:03;1.75;;;1.35;;
28828;SDS011;15966;51.540;11.870;2023-03-14T06:28:30;2.97;;;1.70;;
28828;SDS011;15966;51.540;11.870;2023-03-14T06:30:56;4.07;;;1.42;;
28828;SDS011;15966;51.540;11.870;2023-03-14T06:33:23;6.23;;;2.27;;
28828;SDS011;15966;51.540;11.870;2023-03-14T06:35:49;6.32;;;1.73;;
28828;SDS011;15966;51.540;11.870;2023-03-14T06:38:15;3.70;;;1.48;;
28828;SDS011;15966;51.540;11.870;2023-03-14T06:40:41;3.03;;;1.08;;
28828;SDS011;15966;51.540;11.870;2023-03-14T06:43:07;2.05;;;1.42;;
28828;SDS011;15966;51.540;11.870;2023-03-14T06:45:33;2.40;;;1.85;;
28828;SDS011;15966;51.540;11.870;2023-03-14T06:47:59;3.88;;;1.15;;
28828;SDS011;15966;51.540;11.870;2023-03-14T06:50:25;5.43;;;1.63;;
28828;SDS011;15966;51.540;11.870;2023-03-14T06:52:52;3.40;;;1.30;;
28828;SDS011;15966;51.540;11.870;2023-03-14T06:55:18;4.10;;;1.40;;
28828;SDS011;15966;51.540;11.870;2023-03-14T06:57:44;6.35;;;1.65;;
28828;SDS011;15966;51.540;11.870;2023-03-14T07:00:11;4.00;;;1.63;;
28828;SDS011;15966;51.540;11.870;2023-03-14T07:02:37;3.10;;;2.00;;
28828;SDS011;15966;51.540;11.870;2023-03-14T07:05:04;6.07;;;1.50;;
28828;SDS011;15966;51.540;11.870;2023-03-14T07:07:30;4.13;;;1.33;;
28828;SDS011;15966;51.540;11.870;2023-03-14T07:09:56;3.10;;;1.20;;
28828;SDS011;15966;51.540;11.870;2023-03-14T07:12:22;3.65;;;1.52;;
28828;SDS011;15966;51.540;11.870;2023-03-14T07:14:48;7.10;;;1.85;;
28828;SDS011;15966;51.540;11.870;2023-03-14T07:17:15;3.72;;;1.58;;
28828;SDS011;15966;51.540;11.870;2023-03-14T07:19:41;2.53;;;1.70;;
28828;SDS011;15966;51.540;11.870;2023-03-14T07:22:07;2.17;;;1.45;;
28828;SDS011;15966;51.540;11.870;2023-03-14T07:24:33;2.67;;;1.75;;
28828;SDS011;15966;51.540;11.870;2023-03-14T07:26:59;3.88;;;1.27;;
28828;SDS011;15966;51.540;11.870;2023-03-14T07:29:25;2.50;;;1.52;;
28828;SDS011;15966;51.540;11.870;2023-03-14T07:31:51;6.93;;;2.30;;
28828;SDS011;15966;51.540;11.870;2023-03-14T07:34:17;5.18;;;1.77;;
28828;SDS011;15966;51.540;11.870;2023-03-14T07:36:44;3.00;;;1.27;;
28828;SDS011;15966;51.540;11.870;2023-03-14T07:39:10;3.40;;;2.17;;
28828;SDS011;15966;51.540;11.870;2023-03-14T07:41:36;4.93;;;2.00;;
28828;SDS011;15966;51.540;11.870;2023-03-14T07:44:02;7.38;;;1.83;;
28828;SDS011;15966;51.540;11.870;2023-03-14T07:46:28;2.35;;;1.17;;
28828;SDS011;15966;51.540;11.870;2023-03-14T07:48:54;6.47;;;1.88;;
28828;SDS011;15966;51.540;11.870;2023-03-14T07:51:20;2.40;;;1.65;;
28828;SDS011;15966;51.540;11.870;2023-03-14T07:53:46;2.67;;;1.20;;
28828;SDS011;15966;51.540;11.870;2023-03-14T07:56:12;3.17;;;1.10;;
28828;SDS011;15966;51.540;11.870;2023-03-14T07:58:38;4.10;;;2.13;;
28828;SDS011;15966;51.540;11.870;2023-03-14T08:01:05;1.95;;;1.45;;
28828;SDS011;15966;51.540;11.870;2023-03-14T08:03:31;7.80;;;1.42;;
28828;SDS011;15966;51.540;11.870;2023-03-14T08:05:58;2.33;;;1.40;;
28828;SDS011;15966;51.540;11.870;2023-03-14T08:08:24;4.60;;;2.03;;
28828;SDS011;15966;51.540;11.870;2023-03-14T08:10:50;3.53;;;1.15;;
28828;SDS011;15966;51.540;11.870;2023-03-14T08:13:16;3.03;;;1.23;;
28828;SDS011;15966;51.540;11.870;2023-03-14T08:15:42;2.83;;;1.10;;
28828;SDS011;15966;51.540;11.870;2023-03-14T08:18:12;2.00;;;1.10;;
28828;SDS011;15966;51.540;11.870;2023-03-14T08:20:38;4.35;;;1.67;;
28828;SDS011;15966;51.540;11.870;2023-03-14T08:23:04;5.57;;;0.82;;
28828;SDS011;15966;51.540;11.870;2023-03-14T08:25:30;1.70;;;1.10;;
28828;SDS011;15966;51.540;11.870;2023-03-14T08:27:57;5.88;;;1.27;;
28828;SDS011;15966;51.540;11.870;2023-03-14T08:30:23;7.55;;;1.92;;
28828;SDS011;15966;51.540;11.870;2023-03-14T08:32:49;3.13;;;1.45;;
28828;SDS011;15966;51.540;11.870;2023-03-14T08:35:15;4.78;;;1.10;;
28828;SDS011;15966;51.540;11.870;2023-03-14T08:37:41;1.55;;;0.85;;
28828;SDS011;15966;51.540;11.870;2023-03-14T08:40:07;3.60;;;0.70;;
28828;SDS011;15966;51.540;11.870;2023-03-14T08:42:35;1.13;;;0.88;;
28828;SDS011;15966;51.540;11.870;2023-03-14T08:45:02;7.07;;;1.20;;
28828;SDS011;15966;51.540;11.870;2023-03-14T08:47:29;2.03;;;1.15;;
28828;SDS011;15966;51.540;11.870;2023-03-14T08:49:55;0.70;;;0.65;;
28828;SDS011;15966;51.540;11.870;2023-03-14T08:52:21;4.38;;;1.20;;
28828;SDS011;15966;51.540;11.870;2023-03-14T08:54:47;5.82;;;1.30;;
28828;SDS011;15966;51.540;11.870;2023-03-14T08:57:13;5.75;;;1.50;;
28828;SDS011;15966;51.540;11.870;2023-03-14T08:59:39;3.38;;;1.73;;
28828;SDS011;15966;51.540;11.870;2023-03-14T09:02:05;4.75;;;1.85;;
28828;SDS011;15966;51.540;11.870;2023-03-14T09:04:34;3.47;;;1.55;;
28828;SDS011;15966;51.540;11.870;2023-03-14T09:07:00;5.45;;;1.17;;
28828;SDS011;15966;51.540;11.870;2023-03-14T09:09:26;3.03;;;1.35;;
28828;SDS011;15966;51.540;11.870;2023-03-14T09:11:52;4.82;;;1.20;;
28828;SDS011;15966;51.540;11.870;2023-03-14T09:14:18;0.95;;;0.60;;
28828;SDS011;15966;51.540;11.870;2023-03-14T09:16:45;2.03;;;0.98;;
28828;SDS011;15966;51.540;11.870;2023-03-14T09:19:11;1.42;;;0.90;;
28828;SDS011;15966;51.540;11.870;2023-03-14T09:21:37;2.75;;;1.25;;
28828;SDS011;15966;51.540;11.870;2023-03-14T09:24:03;4.43;;;1.10;;
28828;SDS011;15966;51.540;11.870;2023-03-14T09:26:30;4.10;;;1.35;;
28828;SDS011;15966;51.540;11.870;2023-03-14T09:28:56;1.75;;;0.73;;
28828;SDS011;15966;51.540;11.870;2023-03-14T09:31:22;3.45;;;1.10;;
28828;SDS011;15966;51.540;11.870;2023-03-14T09:33:48;0.93;;;0.40;;
28828;SDS011;15966;51.540;11.870;2023-03-14T09:36:15;1.52;;;0.80;;
28828;SDS011;15966;51.540;11.870;2023-03-14T09:38:41;1.40;;;1.02;;
28828;SDS011;15966;51.540;11.870;2023-03-14T09:41:12;0.80;;;0.60;;
28828;SDS011;15966;51.540;11.870;2023-03-14T09:44:00;2.05;;;0.90;;
28828;SDS011;15966;51.540;11.870;2023-03-14T09:46:47;4.25;;;1.05;;
28828;SDS011;15966;51.540;11.870;2023-03-14T09:49:27;2.17;;;1.13;;
28828;SDS011;15966;51.540;11.870;2023-03-14T09:51:59;1.08;;;0.50;;
28828;SDS011;15966;51.540;11.870;2023-03-14T09:57:03;1.75;;;1.08;;
28828;SDS011;15966;51.540;11.870;2023-03-14T10:02:00;6.22;;;0.95;;
28828;SDS011;15966;51.540;11.870;2023-03-14T10:04:27;1.30;;;0.50;;
28828;SDS011;15966;51.540;11.870;2023-03-14T10:06:54;3.53;;;0.98;;
28828;SDS011;15966;51.540;11.870;2023-03-14T10:09:21;1.40;;;1.30;;
28828;SDS011;15966;51.540;11.870;2023-03-14T10:11:52;0.55;;;0.30;;
28828;SDS011;15966;51.540;11.870;2023-03-14T10:14:33;0.40;;;0.38;;
28828;SDS011;15966;51.540;11.870;2023-03-14T10:17:07;1.15;;;0.50;;
28828;SDS011;15966;51.540;11.870;2023-03-14T10:19:34;0.95;;;0.28;;
28828;SDS011;15966;51.540;11.870;2023-03-14T10:22:02;0.93;;;0.60;;
28828;SDS011;15966;51.540;11.870;2023-03-14T10:24:34;0.82;;;0.40;;
28828;SDS011;15966;51.540;11.870;2023-03-14T10:27:02;1.25;;;0.80;;
28828;SDS011;15966;51.540;11.870;2023-03-14T10:29:31;2.65;;;0.68;;
28828;SDS011;15966;51.540;11.870;2023-03-14T10:32:04;1.38;;;0.40;;
28828;SDS011;15966;51.540;11.870;2023-03-14T10:34:35;0.85;;;0.65;;
28828;SDS011;15966;51.540;11.870;2023-03-14T10:39:47;0.45;;;0.30;;
28828;SDS011;15966;51.540;11.870;2023-03-14T10:42:25;2.42;;;0.55;;
28828;SDS011;15966;51.540;11.870;2023-03-14T10:44:55;1.15;;;0.38;;
28828;SDS011;15966;51.540;11.870;2023-03-14T10:47:35;0.65;;;0.40;;
28828;SDS011;15966;51.540;11.870;2023-03-14T10:50:43;0.30;;;0.30;;
28828;SDS011;15966;51.540;11.870;2023-03-14T10:52:54;1.20;;;0.50;;
28828;SDS011;15966;51.540;11.870;2023-03-14T10:55:23;1.30;;;0.43;;
28828;SDS011;15966;51.540;11.870;2023-03-14T10:57:51;1.52;;;0.88;;
28828;SDS011;15966;51.540;11.870;2023-03-14T11:00:18;1.83;;;0.60;;
28828;SDS011;15966;51.540;11.870;2023-03-14T11:02:59;0.55;;;0.35;;
28828;SDS011;15966;51.540;11.870;2023-03-14T11:05:46;2.55;;;0.60;;
28828;SDS011;15966;51.540;11.870;2023-03-14T11:08:26;0.90;;;0.30;;
28828;SDS011;15966;51.540;11.870;2023-03-14T11:13:53;0.90;;;0.65;;
28828;SDS011;15966;51.540;11.870;2023-03-14T11:24:41;0.38;;;0.38;;
28828;SDS011;15966;51.540;11.870;2023-03-14T11:27:22;2.13;;;0.40;;
28828;SDS011;15966;51.540;11.870;2023-03-14T11:30:03;3.15;;;1.23;;
28828;SDS011;15966;51.540;11.870;2023-03-14T11:32:50;2.35;;;0.80;;
28828;SDS011;15966;51.540;11.870;2023-03-14T11:35:27;0.80;;;0.38;;
28828;SDS011;15966;51.540;11.870;2023-03-14T11:40:49;1.58;;;0.93;;
28828;SDS011;15966;51.540;11.870;2023-03-14T11:43:20;1.83;;;0.60;;
28828;SDS011;15966;51.540;11.870;2023-03-14T11:45:54;2.53;;;0.98;;
28828;SDS011;15966;51.540;11.870;2023-03-14T11:49:00;2.60;;;1.15;;
28828;SDS011;15966;51.540;11.870;2023-03-14T11:51:46;3.10;;;0.60;;
28828;SDS011;15966;51.540;11.870;2023-03-14T11:54:21;0.95;;;0.52;;
28828;SDS011;15966;51.540;11.870;2023-03-14T11:57:03;1.60;;;0.60;;
28828;SDS011;15966;51.540;11.870;2023-03-14T11:59:50;2.25;;;1.13;;
28828;SDS011;15966;51.540;11.870;2023-03-14T12:10:37;0.22;;;0.22;;
28828;SDS011;15966;51.540;11.870;2023-03-14T12:13:04;1.67;;;0.43;;
28828;SDS011;15966;51.540;11.870;2023-03-14T12:15:38;1.00;;;0.57;;
28828;SDS011;15966;51.540;11.870;2023-03-14T12:18:13;0.30;;;0.30;;
28828;SDS011;15966;51.540;11.870;2023-03-14T12:20:53;0.38;;;0.35;;
28828;SDS011;15966;51.540;11.870;2023-03-14T12:23:23;0.28;;;0.28;;
28828;SDS011;15966;51.540;11.870;2023-03-14T12:28:35;0.55;;;0.55;;
28828;SDS011;15966;51.540;11.870;2023-03-14T12:39:24;0.38;;;0.38;;
28828;SDS011;15966;51.540;11.870;2023-03-14T12:42:09;0.25;;;0.22;;
28828;SDS011;15966;51.540;11.870;2023-03-14T12:44:40;1.02;;;0.68;;
28828;SDS011;15966;51.540;11.870;2023-03-14T12:49:43;0.52;;;0.30;;
28828;SDS011;15966;51.540;11.870;2023-03-14T12:52:14;0.40;;;0.40;;
28828;SDS011;15966;51.540;11.870;2023-03-14T12:54:47;1.25;;;0.50;;
28828;SDS011;15966;51.540;11.870;2023-03-14T13:02:45;1.00;;;0.65;;
28828;SDS011;15966;51.540;11.870;2023-03-14T13:05:14;1.20;;;0.10;;
28828;SDS011;15966;51.540;11.870;2023-03-14T13:12:57;0.90;;;0.55;;
28828;SDS011;15966;51.540;11.870;2023-03-14T13:15:41;0.60;;;0.30;;
28828;SDS011;15966;51.540;11.870;2023-03-14T13:18:16;1.27;;;0.68;;
28828;SDS011;15966;51.540;11.870;2023-03-14T13:23:55;2.35;;;0.73;;
28828;SDS011;15966;51.540;11.870;2023-03-14T13:26:36;1.20;;;0.20;;
28828;SDS011;15966;51.540;11.870;2023-03-14T13:31:57;0.95;;;0.80;;
28828;SDS011;15966;51.540;11.870;2023-03-14T13:34:29;0.35;;;0.30;;
28828;SDS011;15966;51.540;11.870;2023-03-14T13:36:56;0.43;;;0.30;;
28828;SDS011;15966;51.540;11.870;2023-03-14T13:39:23;0.45;;;0.45;;
28828;SDS011;15966;51.540;11.870;2023-03-14T13:44:20;0.45;;;0.45;;
28828;SDS011;15966;51.540;11.870;2023-03-14T13:46:58;0.20;;;0.20;;
28828;SDS011;15966;51.540;11.870;2023-03-14T13:49:26;1.65;;;0.32;;
28828;SDS011;15966;51.540;11.870;2023-03-14T13:51:54;0.30;;;0.30;;
28828;SDS011;15966;51.540;11.870;2023-03-14T13:54:21;0.30;;;0.30;;
28828;SDS011;15966;51.540;11.870;2023-03-14T13:56:48;1.30;;;0.30;;
28828;SDS011;15966;51.540;11.870;2023-03-14T13:59:30;0.73;;;0.60;;
28828;SDS011;15966;51.540;11.870;2023-03-14T14:01:58;3.33;;;0.55;;
28828;SDS011;15966;51.540;11.870;2023-03-14T14:04:25;0.55;;;0.40;;
28828;SDS011;15966;51.540;11.870;2023-03-14T14:06:53;0.40;;;0.40;;
28828;SDS011;15966;51.540;11.870;2023-03-14T14:12:06;0.65;;;0.30;;
28828;SDS011;15966;51.540;11.870;2023-03-14T14:14:46;0.73;;;0.63;;
28828;SDS011;15966;51.540;11.870;2023-03-14T14:17:24;1.15;;;0.40;;
28828;SDS011;15966;51.540;11.870;2023-03-14T14:20:02;0.50;;;0.50;;
28828;SDS011;15966;51.540;11.870;2023-03-14T14:22:30;4.28;;;0.77;;
28828;SDS011;15966;51.540;11.870;2023-03-14T14:24:57;0.93;;;0.75;;
28828;SDS011;15966;51.540;11.870;2023-03-14T14:27:29;1.48;;;0.40;;
28828;SDS011;15966;51.540;11.870;2023-03-14T14:30:04;1.55;;;0.80;;
28828;SDS011;15966;51.540;11.870;2023-03-14T14:32:38;1.73;;;1.05;;
28828;SDS011;15966;51.540;11.870;2023-03-14T14:35:05;0.75;;;0.75;;
28828;SDS011;15966;51.540;11.870;2023-03-14T14:37:34;3.35;;;1.13;;
28828;SDS011;15966;51.540;11.870;2023-03-14T14:40:08;3.20;;;1.20;;
28828;SDS011;15966;51.540;11.870;2023-03-14T14:42:40;2.00;;;0.60;;
28828;SDS011;15966;51.540;11.870;2023-03-14T14:45:09;0.80;;;0.80;;
28828;SDS011;15966;51.540;11.870;2023-03-14T14:47:51;1.85;;;1.75;;
28828;SDS011;15966;51.540;11.870;2023-03-14T14:50:26;2.85;;;1.35;;
28828;SDS011;15966;51.540;11.870;2023-03-14T14:52:56;2.80;;;1.17;;
28828;SDS011;15966;51.540;11.870;2023-03-14T14:55:33;1.02;;;1.02;;
28828;SDS011;15966;51.540;11.870;2023-03-14T14:58:40;1.45;;;1.35;;
28828;SDS011;15966;51.540;11.870;2023-03-14T15:03:58;1.35;;;1.25;;
28828;SDS011;15966;51.540;11.870;2023-03-14T15:06:24;1.10;;;1.00;;
28828;SDS011;15966;51.540;11.870;2023-03-14T15:08:54;2.28;;;0.77;;
28828;SDS011;15966;51.540;11.870;2023-03-14T15:11:21;2.45;;;1.08;;
28828;SDS011;15966;51.540;11.870;2023-03-14T15:13:49;0.60;;;0.60;;
28828;SDS011;15966;51.540;11.870;2023-03-14T15:16:17;0.63;;;0.63;;
28828;SDS011;15966;51.540;11.870;2023-03-14T15:18:51;0.52;;;0.52;;
28828;SDS011;15966;51.540;11.870;2023-03-14T15:21:19;0.52;;;0.52;;
28828;SDS011;15966;51.540;11.870;2023-03-14T15:23:45;0.50;;;0.50;;
28828;SDS011;15966;51.540;11.870;2023-03-14T15:26:11;0.57;;;0.57;;
28828;SDS011;15966;51.540;11.870;2023-03-14T15:28:40;0.88;;;0.47;;
28828;SDS011;15966;51.540;11.870;2023-03-14T15:31:10;0.30;;;0.30;;
28828;SDS011;15966;51.540;11.870;2023-03-14T15:33:37;2.72;;;0.60;;
28828;SDS011;15966;51.540;11.870;2023-03-14T15:36:03;0.47;;;0.47;;
28828;SDS011;15966;51.540;11.870;2023-03-14T15:38:31;0.50;;;0.50;;
28828;SDS011;15966;51.540;11.870;2023-03-14T15:40:57;1.85;;;1.45;;
28828;SDS011;15966;51.540;11.870;2023-03-14T15:43:23;1.88;;;1.58;;
28828;SDS011;15966;51.540;11.870;2023-03-14T15:45:49;1.77;;;1.10;;
28828;SDS011;15966;51.540;11.870;2023-03-14T15:48:19;0.52;;;0.52;;
28828;SDS011;15966;51.540;11.870;2023-03-14T15:50:46;3.00;;;1.10;;
28828;SDS011;15966;51.540;11.870;2023-03-14T15:53:12;3.45;;;1.30;;
28828;SDS011;15966;51.540;11.870;2023-03-14T15:55:38;6.43;;;1.25;;
28828;SDS011;15966;51.540;11.870;2023-03-14T15:58:04;2.20;;;0.70;;